sensor_id;sensor_type;location;lat;lon;timestamp;P1;durP1;ratioP1;P2;durP2;ratioP2
23262;SDS011;11800;49.830;9.922;2023-03-01T00:01:49;0.22;;;0.22;;
23262;SDS011;11800;49.830;9.922;2023-03-01T00:04:15;0.20;;;0.20;;
23262;SDS011;11800;49.830;9.922;2023-03-01T00:06:44;0.20;;;0.20;;
23262;SDS011;11800;49.830;9.922;2023-03-01T00:09:11;0.30;;;0.30;;
23262;SDS011;11800;49.830;9.922;2023-03-01T00:11:37;0.20;;;0.20;;
23262;SDS011;11800;49.830;9.922;2023-03-01T00:14:03;0.30;;;0.30;;
23262;SDS011;11800;49.830;9.922;2023-03-01T00:16:34;0.30;;;0.30;;
23262;SDS011;11800;49.830;9.922;2023-03-01T00:19:01;0.20;;;0.20;;
23262;SDS011;11800;49.830;9.922;2023-03-01T00:21:27;0.25;;;0.25;;
23262;SDS011;11800;49.830;9.922;2023-03-01T00:23:53;0.20;;;0.20;;
23262;SDS011;11800;49.830;9.922;2023-03-01T00:26:19;0.25;;;0.25;;
23262;SDS011;11800;49.830;9.922;2023-03-01T00:28:46;0.20;;;0.20;;
23262;SDS011;11800;49.830;9.922;2023-03-01T00:31:13;0.30;;;0.30;;
23262;SDS011;11800;49.830;9.922;2023-03-01T00:33:40;0.20;;;0.20;;
23262;SDS011;11800;49.830;9.922;2023-03-01T00:36:06;0.20;;;0.20;;
23262;SDS011;11800;49.830;9.922;2023-03-01T00:38:36;0.25;;;0.25;;
23262;SDS011;11800;49.830;9.922;2023-03-01T00:41:06;0.20;;;0.20;;
23262;SDS011;11800;49.830;9.922;2023-03-01T00:43:32;0.20;;;0.20;;
23262;SDS011;11800;49.830;9.922;2023-03-01T00:46:02;0.30;;;0.30;;
23262;SDS011;11800;49.830;9.922;2023-03-01T00:48:28;0.20;;;0.20;;
23262;SDS011;11800;49.830;9.922;2023-03-01T00:50:54;0.30;;;0.30;;
23262;SDS011;11800;49.830;9.922;2023-03-01T00:53:20;0.20;;;0.20;;
23262;SDS011;11800;49.830;9.922;2023-03-01T00:55:46;0.20;;;0.20;;
23262;SDS011;11800;49.830;9.922;2023-03-01T00:58:12;0.20;;;0.20;;
23262;SDS011;11800;49.830;9.922;2023-03-01T01:00:38;0.30;;;0.30;;
23262;SDS011;11800;49.830;9.922;2023-03-01T01:03:04;0.32;;;0.32;;
23262;SDS011;11800;49.830;9.922;2023-03-01T01:05:30;0.20;;;0.20;;
23262;SDS011;11800;49.830;9.922;2023-03-01T01:07:56;0.20;;;0.20;;
23262;SDS011;11800;49.830;9.922;2023-03-01T01:10:22;0.30;;;0.30;;
23262;SDS011;11800;49.830;9.922;2023-03-01T01:12:48;0.30;;;0.30;;
23262;SDS011;11800;49.830;9.922;2023-03-01T01:15:14;0.28;;;0.28;;
23262;SDS011;11800;49.830;9.922;2023-03-01T01:17:41;0.30;;;0.30;;
23262;SDS011;11800;49.830;9.922;2023-03-01T01:20:07;0.20;;;0.20;;
23262;SDS011;11800;49.830;9.922;2023-03-01T01:22:34;0.30;;;0.30;;
23262;SDS011;11800;49.830;9.922;2023-03-01T01:25:00;0.20;;;0.20;;
23262;SDS011;11800;49.830;9.922;2023-03-01T01:27:26;0.20;;;0.20;;
23262;SDS011;11800;49.830;9.922;2023-03-01T01:29:52;0.20;;;0.20;;
23262;SDS011;11800;49.830;9.922;2023-03-01T01:32:18;0.28;;;0.28;;
23262;SDS011;11800;49.830;9.922;2023-03-01T01:34:46;0.20;;;0.20;;
23262;SDS011;11800;49.830;9.922;2023-03-01T01:37:12;0.22;;;0.22;;
23262;SDS011;11800;49.830;9.922;2023-03-01T01:39:38;0.20;;;0.20;;
23262;SDS011;11800;49.830;9.922;2023-03-01T01:42:04;0.30;;;0.30;;
23262;SDS011;11800;49.830;9.922;2023-03-01T01:44:32;0.22;;;0.22;;
23262;SDS011;11800;49.830;9.922;2023-03-01T01:47:12;0.30;;;0.30;;
23262;SDS011;11800;49.830;9.922;2023-03-01T01:52:12;0.20;;;0.20;;
23262;SDS011;11800;49.830;9.922;2023-03-01T01:57:09;0.20;;;0.20;;
23262;SDS011;11800;49.830;9.922;2023-03-01T01:59:36;0.30;;;0.30;;
23262;SDS011;11800;49.830;9.922;2023-03-01T02:02:02;0.30;;;0.30;;
23262;SDS011;11800;49.830;9.922;2023-03-01T02:04:29;0.20;;;0.20;;
23262;SDS011;11800;49.830;9.922;2023-03-01T02:07:07;0.20;;;0.20;;
23262;SDS011;11800;49.830;9.922;2023-03-01T02:09:34;0.20;;;0.20;;
23262;SDS011;11800;49.830;9.922;2023-03-01T02:12:01;0.20;;;0.20;;
23262;SDS011;11800;49.830;9.922;2023-03-01T02:14:28;0.20;;;0.20;;
23262;SDS011;11800;49.830;9.922;2023-03-01T02:16:54;0.20;;;0.20;;
23262;SDS011;11800;49.830;9.922;2023-03-01T02:19:27;0.20;;;0.20;;
23262;SDS011;11800;49.830;9.922;2023-03-01T02:21:58;0.20;;;0.20;;
23262;SDS011;11800;49.830;9.922;2023-03-01T02:24:32;0.20;;;0.20;;
23262;SDS011;11800;49.830;9.922;2023-03-01T02:27:01;0.20;;;0.20;;
23262;SDS011;11800;49.830;9.922;2023-03-01T02:29:27;0.30;;;0.30;;
23262;SDS011;11800;49.830;9.922;2023-03-01T02:31:54;0.20;;;0.20;;
23262;SDS011;11800;49.830;9.922;2023-03-01T02:34:22;0.22;;;0.22;;
23262;SDS011;11800;49.830;9.922;2023-03-01T02:36:57;0.30;;;0.30;;
23262;SDS011;11800;49.830;9.922;2023-03-01T02:39:30;0.20;;;0.20;;
23262;SDS011;11800;49.830;9.922;2023-03-01T02:41:57;0.25;;;0.25;;
23262;SDS011;11800;49.830;9.922;2023-03-01T02:44:25;0.30;;;0.30;;
23262;SDS011;11800;49.830;9.922;2023-03-01T02:46:52;0.20;;;0.20;;
23262;SDS011;11800;49.830;9.922;2023-03-01T02:49:26;0.20;;;0.20;;
23262;SDS011;11800;49.830;9.922;2023-03-01T02:57:06;0.20;;;0.20;;
23262;SDS011;11800;49.830;9.922;2023-03-01T02:59:33;0.20;;;0.20;;
23262;SDS011;11800;49.830;9.922;2023-03-01T03:02:04;0.20;;;0.20;;
23262;SDS011;11800;49.830;9.922;2023-03-01T03:04:30;0.25;;;0.25;;
23262;SDS011;11800;49.830;9.922;2023-03-01T03:06:56;0.30;;;0.30;;
23262;SDS011;11800;49.830;9.922;2023-03-01T03:09:22;0.30;;;0.30;;
23262;SDS011;11800;49.830;9.922;2023-03-01T03:11:49;0.30;;;0.30;;
23262;SDS011;11800;49.830;9.922;2023-03-01T03:14:15;0.30;;;0.30;;
23262;SDS011;11800;49.830;9.922;2023-03-01T03:19:07;0.25;;;0.25;;
23262;SDS011;11800;49.830;9.922;2023-03-01T03:21:34;0.30;;;0.30;;
23262;SDS011;11800;49.830;9.922;2023-03-01T03:24:00;0.20;;;0.20;;
23262;SDS011;11800;49.830;9.922;2023-03-01T03:26:26;0.30;;;0.30;;
23262;SDS011;11800;49.830;9.922;2023-03-01T03:28:52;0.20;;;0.20;;
23262;SDS011;11800;49.830;9.922;2023-03-01T03:31:18;0.20;;;0.20;;
23262;SDS011;11800;49.830;9.922;2023-03-01T03:33:44;0.28;;;0.28;;
23262;SDS011;11800;49.830;9.922;2023-03-01T03:36:14;0.20;;;0.20;;
23262;SDS011;11800;49.830;9.922;2023-03-01T03:38:42;0.30;;;0.30;;
23262;SDS011;11800;49.830;9.922;2023-03-01T03:41:09;0.20;;;0.20;;
23262;SDS011;11800;49.830;9.922;2023-03-01T03:43:37;0.20;;;0.20;;
23262;SDS011;11800;49.830;9.922;2023-03-01T03:46:03;0.20;;;0.20;;
23262;SDS011;11800;49.830;9.922;2023-03-01T03:48:33;0.20;;;0.20;;
23262;SDS011;11800;49.830;9.922;2023-03-01T03:50:59;0.30;;;0.30;;
23262;SDS011;11800;49.830;9.922;2023-03-01T03:53:26;0.20;;;0.20;;
23262;SDS011;11800;49.830;9.922;2023-03-01T03:55:52;0.22;;;0.22;;
23262;SDS011;11800;49.830;9.922;2023-03-01T03:58:19;0.20;;;0.20;;
23262;SDS011;11800;49.830;9.922;2023-03-01T04:00:47;0.30;;;0.30;;
23262;SDS011;11800;49.830;9.922;2023-03-01T04:03:13;0.20;;;0.20;;
23262;SDS011;11800;49.830;9.922;2023-03-01T04:05:40;0.30;;;0.30;;
23262;SDS011;11800;49.830;9.922;2023-03-01T04:08:06;0.30;;;0.30;;
23262;SDS011;11800;49.830;9.922;2023-03-01T04:10:34;0.20;;;0.20;;
23262;SDS011;11800;49.830;9.922;2023-03-01T04:13:01;0.20;;;0.20;;
23262;SDS011;11800;49.830;9.922;2023-03-01T04:15:27;0.30;;;0.30;;
23262;SDS011;11800;49.830;9.922;2023-03-01T04:17:54;0.20;;;0.20;;
23262;SDS011;11800;49.830;9.922;2023-03-01T04:20:24;0.20;;;0.20;;
23262;SDS011;11800;49.830;9.922;2023-03-01T04:22:56;0.30;;;0.30;;
23262;SDS011;11800;49.830;9.922;2023-03-01T04:25:23;0.30;;;0.30;;
23262;SDS011;11800;49.830;9.922;2023-03-01T04:27:49;0.30;;;0.30;;
23262;SDS011;11800;49.830;9.922;2023-03-01T04:30:15;0.22;;;0.22;;
23262;SDS011;11800;49.830;9.922;2023-03-01T04:32:41;0.30;;;0.30;;
23262;SDS011;11800;49.830;9.922;2023-03-01T04:35:07;0.20;;;0.20;;
23262;SDS011;11800;49.830;9.922;2023-03-01T04:37:33;0.20;;;0.20;;
23262;SDS011;11800;49.830;9.922;2023-03-01T04:40:00;0.22;;;0.22;;
23262;SDS011;11800;49.830;9.922;2023-03-01T04:42:40;0.25;;;0.25;;
23262;SDS011;11800;49.830;9.922;2023-03-01T04:45:07;0.20;;;0.20;;
23262;SDS011;11800;49.830;9.922;2023-03-01T04:47:38;0.30;;;0.30;;
23262;SDS011;11800;49.830;9.922;2023-03-01T04:50:04;0.30;;;0.30;;
23262;SDS011;11800;49.830;9.922;2023-03-01T04:52:32;0.30;;;0.30;;
23262;SDS011;11800;49.830;9.922;2023-03-01T04:54:59;0.20;;;0.20;;
23262;SDS011;11800;49.830;9.922;2023-03-01T04:57:26;0.30;;;0.30;;
23262;SDS011;11800;49.830;9.922;2023-03-01T04:59:54;0.30;;;0.30;;
23262;SDS011;11800;49.830;9.922;2023-03-01T05:02:21;0.30;;;0.30;;
23262;SDS011;11800;49.830;9.922;2023-03-01T05:04:47;0.20;;;0.20;;
23262;SDS011;11800;49.830;9.922;2023-03-01T05:07:13;0.20;;;0.20;;
23262;SDS011;11800;49.830;9.922;2023-03-01T05:09:47;0.30;;;0.30;;
23262;SDS011;11800;49.830;9.922;2023-03-01T05:12:14;0.30;;;0.30;;
23262;SDS011;11800;49.830;9.922;2023-03-01T05:14:40;0.20;;;0.20;;
23262;SDS011;11800;49.830;9.922;2023-03-01T05:17:06;0.30;;;0.30;;
23262;SDS011;11800;49.830;9.922;2023-03-01T05:19:32;0.20;;;0.20;;
23262;SDS011;11800;49.830;9.922;2023-03-01T05:21:58;0.20;;;0.20;;
23262;SDS011;11800;49.830;9.922;2023-03-01T05:24:32;0.20;;;0.20;;
23262;SDS011;11800;49.830;9.922;2023-03-01T05:26:58;0.30;;;0.30;;
23262;SDS011;11800;49.830;9.922;2023-03-01T05:29:24;0.30;;;0.30;;
23262;SDS011;11800;49.830;9.922;2023-03-01T05:32:00;0.30;;;0.30;;
23262;SDS011;11800;49.830;9.922;2023-03-01T05:34:32;0.30;;;0.30;;
23262;SDS011;11800;49.830;9.922;2023-03-01T05:36:58;0.30;;;0.30;;
23262;SDS011;11800;49.830;9.922;2023-03-01T05:39:27;0.20;;;0.20;;
23262;SDS011;11800;49.830;9.922;2023-03-01T05:41:54;0.20;;;0.20;;
23262;SDS011;11800;49.830;9.922;2023-03-01T05:44:20;0.30;;;0.30;;
23262;SDS011;11800;49.830;9.922;2023-03-01T05:46:47;0.20;;;0.20;;
23262;SDS011;11800;49.830;9.922;2023-03-01T05:49:13;0.30;;;0.30;;
23262;SDS011;11800;49.830;9.922;2023-03-01T05:51:39;0.20;;;0.20;;
23262;SDS011;11800;49.830;9.922;2023-03-01T05:54:06;0.30;;;0.30;;
23262;SDS011;11800;49.830;9.922;2023-03-01T05:56:33;0.30;;;0.30;;
23262;SDS011;11800;49.830;9.922;2023-03-01T05:58:59;0.30;;;0.30;;
23262;SDS011;11800;49.830;9.922;2023-03-01T06:01:25;0.30;;;0.30;;
23262;SDS011;11800;49.830;9.922;2023-03-01T06:03:51;0.25;;;0.25;;
23262;SDS011;11800;49.830;9.922;2023-03-01T06:06:17;0.20;;;0.20;;
23262;SDS011;11800;49.830;9.922;2023-03-01T06:08:43;0.25;;;0.25;;
23262;SDS011;11800;49.830;9.922;2023-03-01T06:11:09;0.20;;;0.20;;
23262;SDS011;11800;49.830;9.922;2023-03-01T06:13:35;0.38;;;0.38;;
23262;SDS011;11800;49.830;9.922;2023-03-01T06:16:03;0.30;;;0.30;;
23262;SDS011;11800;49.830;9.922;2023-03-01T06:18:32;0.30;;;0.30;;
23262;SDS011;11800;49.830;9.922;2023-03-01T06:20:58;0.30;;;0.30;;
23262;SDS011;11800;49.830;9.922;2023-03-01T06:23:24;0.30;;;0.30;;
23262;SDS011;11800;49.830;9.922;2023-03-01T06:25:52;0.25;;;0.25;;
23262;SDS011;11800;49.830;9.922;2023-03-01T06:28:18;0.20;;;0.20;;
23262;SDS011;11800;49.830;9.922;2023-03-01T06:30:44;0.28;;;0.28;;
23262;SDS011;11800;49.830;9.922;2023-03-01T06:33:11;0.20;;;0.20;;
23262;SDS011;11800;49.830;9.922;2023-03-01T06:35:37;0.30;;;0.30;;
23262;SDS011;11800;49.830;9.922;2023-03-01T06:38:03;0.30;;;0.30;;
23262;SDS011;11800;49.830;9.922;2023-03-01T06:40:30;0.20;;;0.20;;
23262;SDS011;11800;49.830;9.922;2023-03-01T06:42:56;0.20;;;0.20;;
23262;SDS011;11800;49.830;9.922;2023-03-01T06:45:22;0.30;;;0.30;;
23262;SDS011;11800;49.830;9.922;2023-03-01T06:47:48;0.20;;;0.20;;
23262;SDS011;11800;49.830;9.922;2023-03-01T06:50:15;0.22;;;0.22;;
23262;SDS011;11800;49.830;9.922;2023-03-01T06:52:41;0.20;;;0.20;;
23262;SDS011;11800;49.830;9.922;2023-03-01T06:55:09;0.30;;;0.30;;
23262;SDS011;11800;49.830;9.922;2023-03-01T06:57:35;0.30;;;0.30;;
23262;SDS011;11800;49.830;9.922;2023-03-01T07:00:02;0.30;;;0.30;;
23262;SDS011;11800;49.830;9.922;2023-03-01T07:02:28;0.30;;;0.30;;
23262;SDS011;11800;49.830;9.922;2023-03-01T07:04:54;0.30;;;0.30;;
23262;SDS011;11800;49.830;9.922;2023-03-01T07:07:20;0.30;;;0.30;;
23262;SDS011;11800;49.830;9.922;2023-03-01T07:09:46;0.20;;;0.20;;
23262;SDS011;11800;49.830;9.922;2023-03-01T07:12:12;0.30;;;0.30;;
23262;SDS011;11800;49.830;9.922;2023-03-01T07:14:38;0.20;;;0.20;;
23262;SDS011;11800;49.830;9.922;2023-03-01T07:17:04;0.30;;;0.30;;
23262;SDS011;11800;49.830;9.922;2023-03-01T07:19:30;0.20;;;0.20;;
23262;SDS011;11800;49.830;9.922;2023-03-01T07:21:56;0.25;;;0.25;;
23262;SDS011;11800;49.830;9.922;2023-03-01T07:24:22;0.30;;;0.30;;
23262;SDS011;11800;49.830;9.922;2023-03-01T07:26:49;0.25;;;0.25;;
23262;SDS011;11800;49.830;9.922;2023-03-01T07:29:18;0.20;;;0.20;;
23262;SDS011;11800;49.830;9.922;2023-03-01T07:31:44;0.20;;;0.20;;
23262;SDS011;11800;49.830;9.922;2023-03-01T07:34:11;0.20;;;0.20;;
23262;SDS011;11800;49.830;9.922;2023-03-01T07:36:37;0.20;;;0.20;;
23262;SDS011;11800;49.830;9.922;2023-03-01T07:39:04;0.30;;;0.30;;
23262;SDS011;11800;49.830;9.922;2023-03-01T07:41:32;0.20;;;0.20;;
23262;SDS011;11800;49.830;9.922;2023-03-01T07:43:58;0.20;;;0.20;;
23262;SDS011;11800;49.830;9.922;2023-03-01T07:46:24;0.20;;;0.20;;
23262;SDS011;11800;49.830;9.922;2023-03-01T07:48:50;0.30;;;0.30;;
23262;SDS011;11800;49.830;9.922;2023-03-01T07:51:16;0.30;;;0.30;;
23262;SDS011;11800;49.830;9.922;2023-03-01T07:53:42;0.22;;;0.22;;
23262;SDS011;11800;49.830;9.922;2023-03-01T07:56:11;0.20;;;0.20;;
23262;SDS011;11800;49.830;9.922;2023-03-01T07:58:42;0.20;;;0.20;;
23262;SDS011;11800;49.830;9.922;2023-03-01T08:01:10;0.30;;;0.30;;
23262;SDS011;11800;49.830;9.922;2023-03-01T08:03:36;0.20;;;0.20;;
23262;SDS011;11800;49.830;9.922;2023-03-01T08:06:03;0.20;;;0.20;;
23262;SDS011;11800;49.830;9.922;2023-03-01T08:08:31;0.20;;;0.20;;
23262;SDS011;11800;49.830;9.922;2023-03-01T08:10:57;0.20;;;0.20;;
23262;SDS011;11800;49.830;9.922;2023-03-01T08:13:24;0.30;;;0.30;;
23262;SDS011;11800;49.830;9.922;2023-03-01T08:15:50;0.25;;;0.25;;
23262;SDS011;11800;49.830;9.922;2023-03-01T08:18:16;0.20;;;0.20;;
23262;SDS011;11800;49.830;9.922;2023-03-01T08:20:42;0.20;;;0.20;;
23262;SDS011;11800;49.830;9.922;2023-03-01T08:23:08;0.20;;;0.20;;
23262;SDS011;11800;49.830;9.922;2023-03-01T08:25:34;0.30;;;0.30;;
23262;SDS011;11800;49.830;9.922;2023-03-01T08:28:00;0.20;;;0.20;;
23262;SDS011;11800;49.830;9.922;2023-03-01T08:30:26;0.20;;;0.20;;
23262;SDS011;11800;49.830;9.922;2023-03-01T08:32:52;0.20;;;0.20;;
23262;SDS011;11800;49.830;9.922;2023-03-01T08:35:19;0.20;;;0.20;;
23262;SDS011;11800;49.830;9.922;2023-03-01T08:37:45;0.20;;;0.20;;
23262;SDS011;11800;49.830;9.922;2023-03-01T08:40:11;0.20;;;0.20;;
23262;SDS011;11800;49.830;9.922;2023-03-01T08:42:38;0.30;;;0.30;;
23262;SDS011;11800;49.830;9.922;2023-03-01T08:45:05;0.20;;;0.20;;
23262;SDS011;11800;49.830;9.922;2023-03-01T08:47:31;0.20;;;0.20;;
23262;SDS011;11800;49.830;9.922;2023-03-01T08:50:02;0.20;;;0.20;;
23262;SDS011;11800;49.830;9.922;2023-03-01T08:52:28;0.20;;;0.20;;
23262;SDS011;11800;49.830;9.922;2023-03-01T08:54:55;0.20;;;0.20;;
23262;SDS011;11800;49.830;9.922;2023-03-01T08:57:21;0.20;;;0.20;;
23262;SDS011;11800;49.830;9.922;2023-03-01T08:59:47;0.20;;;0.20;;
23262;SDS011;11800;49.830;9.922;2023-03-01T09:02:16;0.20;;;0.20;;
23262;SDS011;11800;49.830;9.922;2023-03-01T09:04:46;0.20;;;0.20;;
23262;SDS011;11800;49.830;9.922;2023-03-01T09:07:12;0.20;;;0.20;;
23262;SDS011;11800;49.830;9.922;2023-03-01T09:09:38;0.20;;;0.20;;
23262;SDS011;11800;49.830;9.922;2023-03-01T09:12:04;0.20;;;0.20;;
23262;SDS011;11800;49.830;9.922;2023-03-01T09:14:30;0.20;;;0.20;;
23262;SDS011;11800;49.830;9.922;2023-03-01T09:16:56;0.20;;;0.20;;
23262;SDS011;11800;49.830;9.922;2023-03-01T09:19:27;0.20;;;0.20;;
23262;SDS011;11800;49.830;9.922;2023-03-01T09:21:53;0.20;;;0.20;;
23262;SDS011;11800;49.830;9.922;2023-03-01T09:24:21;0.20;;;0.20;;
23262;SDS011;11800;49.830;9.922;2023-03-01T09:26:47;0.20;;;0.20;;
23262;SDS011;11800;49.830;9.922;2023-03-01T09:29:14;0.20;;;0.20;;
23262;SDS011;11800;49.830;9.922;2023-03-01T09:31:40;0.20;;;0.20;;
23262;SDS011;11800;49.830;9.922;2023-03-01T09:34:06;0.20;;;0.20;;
23262;SDS011;11800;49.830;9.922;2023-03-01T09:36:32;0.20;;;0.20;;
23262;SDS011;11800;49.830;9.922;2023-03-01T09:38:58;0.20;;;0.20;;
23262;SDS011;11800;49.830;9.922;2023-03-01T09:43:55;0.20;;;0.20;;
23262;SDS011;11800;49.830;9.922;2023-03-01T09:46:24;0.25;;;0.25;;
23262;SDS011;11800;49.830;9.922;2023-03-01T09:51:59;0.20;;;0.20;;
23262;SDS011;11800;49.830;9.922;2023-03-01T09:54:26;0.17;;;0.17;;
23262;SDS011;11800;49.830;9.922;2023-03-01T09:56:56;0.10;;;0.10;;
23262;SDS011;11800;49.830;9.922;2023-03-01T09:59:25;0.20;;;0.20;;
23262;SDS011;11800;49.830;9.922;2023-03-01T10:01:59;0.20;;;0.20;;
23262;SDS011;11800;49.830;9.922;2023-03-01T10:04:41;0.20;;;0.20;;
23262;SDS011;11800;49.830;9.922;2023-03-01T10:09:35;0.20;;;0.20;;
23262;SDS011;11800;49.830;9.922;2023-03-01T10:12:02;0.20;;;0.20;;
23262;SDS011;11800;49.830;9.922;2023-03-01T10:17:03;0.20;;;0.20;;
23262;SDS011;11800;49.830;9.922;2023-03-01T10:19:39;0.20;;;0.20;;
23262;SDS011;11800;49.830;9.922;2023-03-01T10:22:11;0.25;;;0.25;;
23262;SDS011;11800;49.830;9.922;2023-03-01T10:24:39;0.30;;;0.30;;
23262;SDS011;11800;49.830;9.922;2023-03-01T10:27:14;0.20;;;0.20;;
23262;SDS011;11800;49.830;9.922;2023-03-01T10:30:05;0.30;;;0.30;;
23262;SDS011;11800;49.830;9.922;2023-03-01T10:32:29;0.17;;;0.17;;
23262;SDS011;11800;49.830;9.922;2023-03-01T10:34:55;0.20;;;0.20;;
23262;SDS011;11800;49.830;9.922;2023-03-01T10:37:22;0.20;;;0.20;;
23262;SDS011;11800;49.830;9.922;2023-03-01T10:42:25;0.20;;;0.20;;
23262;SDS011;11800;49.830;9.922;2023-03-01T10:44:51;0.10;;;0.10;;
23262;SDS011;11800;49.830;9.922;2023-03-01T10:49:54;0.22;;;0.22;;
23262;SDS011;11800;49.830;9.922;2023-03-01T10:52:21;0.20;;;0.20;;
23262;SDS011;11800;49.830;9.922;2023-03-01T10:54:52;0.20;;;0.20;;
23262;SDS011;11800;49.830;9.922;2023-03-01T10:57:33;0.20;;;0.20;;
23262;SDS011;11800;49.830;9.922;2023-03-01T11:02:46;0.20;;;0.20;;
23262;SDS011;11800;49.830;9.922;2023-03-01T11:07:47;0.10;;;0.10;;
23262;SDS011;11800;49.830;9.922;2023-03-01T11:10:16;0.20;;;0.20;;
23262;SDS011;11800;49.830;9.922;2023-03-01T11:12:42;0.20;;;0.20;;
23262;SDS011;11800;49.830;9.922;2023-03-01T11:15:15;0.20;;;0.20;;
23262;SDS011;11800;49.830;9.922;2023-03-01T11:17:45;0.20;;;0.20;;
23262;SDS011;11800;49.830;9.922;2023-03-01T11:22:47;0.10;;;0.10;;
23262;SDS011;11800;49.830;9.922;2023-03-01T11:25:14;0.20;;;0.20;;
23262;SDS011;11800;49.830;9.922;2023-03-01T11:27:41;0.10;;;0.10;;
23262;SDS011;11800;49.830;9.922;2023-03-01T11:30:28;0.20;;;0.20;;
23262;SDS011;11800;49.830;9.922;2023-03-01T11:35:21;0.13;;;0.13;;
23262;SDS011;11800;49.830;9.922;2023-03-01T11:43:20;0.10;;;0.10;;
23262;SDS011;11800;49.830;9.922;2023-03-01T11:45:54;0.10;;;0.10;;
23262;SDS011;11800;49.830;9.922;2023-03-01T11:48:30;0.10;;;0.10;;
23262;SDS011;11800;49.830;9.922;2023-03-01T11:51:01;0.10;;;0.10;;
23262;SDS011;11800;49.830;9.922;2023-03-01T11:56:18;0.20;;;0.20;;
23262;SDS011;11800;49.830;9.922;2023-03-01T12:06:47;0.20;;;0.20;;
23262;SDS011;11800;49.830;9.922;2023-03-01T12:29:25;0.10;;;0.10;;
23262;SDS011;11800;49.830;9.922;2023-03-01T12:50:16;0.20;;;0.20;;
23262;SDS011;11800;49.830;9.922;2023-03-01T12:52:46;0.20;;;0.20;;
23262;SDS011;11800;49.830;9.922;2023-03-01T12:55:18;0.20;;;0.20;;
23262;SDS011;11800;49.830;9.922;2023-03-01T12:58:00;0.20;;;0.20;;
23262;SDS011;11800;49.830;9.922;2023-03-01T13:00:31;0.20;;;0.20;;
23262;SDS011;11800;49.830;9.922;2023-03-01T13:08:43;0.20;;;0.20;;
23262;SDS011;11800;49.830;9.922;2023-03-01T13:11:17;0.20;;;0.20;;
23262;SDS011;11800;49.830;9.922;2023-03-01T13:13:43;0.20;;;0.20;;
23262;SDS011;11800;49.830;9.922;2023-03-01T13:21:33;0.10;;;0.10;;
23262;SDS011;11800;49.830;9.922;2023-03-01T13:23:59;0.10;;;0.10;;
23262;SDS011;11800;49.830;9.922;2023-03-01T13:26:25;0.17;;;0.17;;
23262;SDS011;11800;49.830;9.922;2023-03-01T13:28:52;0.20;;;0.20;;
23262;SDS011;11800;49.830;9.922;2023-03-01T13:33:53;0.20;;;0.20;;
23262;SDS011;11800;49.830;9.922;2023-03-01T13:46:38;0.20;;;0.20;;
23262;SDS011;11800;49.830;9.922;2023-03-01T13:49:09;0.20;;;0.20;;
23262;SDS011;11800;49.830;9.922;2023-03-01T13:51:38;0.20;;;0.20;;
23262;SDS011;11800;49.830;9.922;2023-03-01T13:54:04;0.20;;;0.20;;
23262;SDS011;11800;49.830;9.922;2023-03-01T13:56:36;0.20;;;0.20;;
23262;SDS011;11800;49.830;9.922;2023-03-01T13:59:03;0.20;;;0.20;;
23262;SDS011;11800;49.830;9.922;2023-03-01T14:01:34;0.10;;;0.10;;
23262;SDS011;11800;49.830;9.922;2023-03-01T14:04:00;0.13;;;0.13;;
23262;SDS011;11800;49.830;9.922;2023-03-01T14:06:27;0.10;;;0.10;;
23262;SDS011;11800;49.830;9.922;2023-03-01T14:09:03;0.10;;;0.10;;
23262;SDS011;11800;49.830;9.922;2023-03-01T14:14:32;0.10;;;0.10;;
23262;SDS011;11800;49.830;9.922;2023-03-01T14:19:39;0.10;;;0.10;;
23262;SDS011;11800;49.830;9.922;2023-03-01T14:24:46;0.10;;;0.10;;
23262;SDS011;11800;49.830;9.922;2023-03-01T14:27:14;0.10;;;0.10;;
23262;SDS011;11800;49.830;9.922;2023-03-01T14:29:40;0.20;;;0.20;;
23262;SDS011;11800;49.830;9.922;2023-03-01T14:34:35;0.10;;;0.10;;
23262;SDS011;11800;49.830;9.922;2023-03-01T14:37:43;0.13;;;0.13;;
23262;SDS011;11800;49.830;9.922;2023-03-01T14:39:50;0.10;;;0.10;;
23262;SDS011;11800;49.830;9.922;2023-03-01T14:42:17;0.10;;;0.10;;
23262;SDS011;11800;49.830;9.922;2023-03-01T14:44:45;0.20;;;0.20;;
23262;SDS011;11800;49.830;9.922;2023-03-01T14:47:12;0.20;;;0.20;;
23262;SDS011;11800;49.830;9.922;2023-03-01T14:49:40;0.20;;;0.20;;
23262;SDS011;11800;49.830;9.922;2023-03-01T14:52:14;0.20;;;0.20;;
23262;SDS011;11800;49.830;9.922;2023-03-01T14:54:44;0.20;;;0.20;;
23262;SDS011;11800;49.830;9.922;2023-03-01T14:57:16;0.30;;;0.30;;
23262;SDS011;11800;49.830;9.922;2023-03-01T14:59:42;0.30;;;0.30;;
23262;SDS011;11800;49.830;9.922;2023-03-01T15:02:11;0.25;;;0.25;;
23262;SDS011;11800;49.830;9.922;2023-03-01T15:04:41;0.38;;;0.38;;
23262;SDS011;11800;49.830;9.922;2023-03-01T15:07:09;0.40;;;0.40;;
23262;SDS011;11800;49.830;9.922;2023-03-01T15:09:39;0.40;;;0.40;;
23262;SDS011;11800;49.830;9.922;2023-03-01T15:14:50;0.40;;;0.40;;
23262;SDS011;11800;49.830;9.922;2023-03-01T15:17:34;0.30;;;0.30;;
23262;SDS011;11800;49.830;9.922;2023-03-01T15:20:02;0.40;;;0.40;;
23262;SDS011;11800;49.830;9.922;2023-03-01T15:22:29;0.40;;;0.40;;
23262;SDS011;11800;49.830;9.922;2023-03-01T15:24:55;0.40;;;0.40;;
23262;SDS011;11800;49.830;9.922;2023-03-01T15:27:22;0.30;;;0.30;;
23262;SDS011;11800;49.830;9.922;2023-03-01T15:29:49;0.40;;;0.40;;
23262;SDS011;11800;49.830;9.922;2023-03-01T15:34:50;0.38;;;0.38;;
23262;SDS011;11800;49.830;9.922;2023-03-01T15:40:02;0.30;;;0.30;;
23262;SDS011;11800;49.830;9.922;2023-03-01T15:45:11;0.10;;;0.10;;
23262;SDS011;11800;49.830;9.922;2023-03-01T15:47:39;0.15;;;0.15;;
23262;SDS011;11800;49.830;9.922;2023-03-01T15:50:11;0.10;;;0.10;;
23262;SDS011;11800;49.830;9.922;2023-03-01T15:52:41;0.10;;;0.10;;
23262;SDS011;11800;49.830;9.922;2023-03-01T15:55:15;0.10;;;0.10;;
23262;SDS011;11800;49.830;9.922;2023-03-01T15:57:41;0.10;;;0.10;;
23262;SDS011;11800;49.830;9.922;2023-03-01T16:00:11;0.10;;;0.10;;
23262;SDS011;11800;49.830;9.922;2023-03-01T16:02:38;0.15;;;0.15;;
23262;SDS011;11800;49.830;9.922;2023-03-01T16:05:04;0.10;;;0.10;;
23262;SDS011;11800;49.830;9.922;2023-03-01T16:07:30;0.10;;;0.10;;
23262;SDS011;11800;49.830;9.922;2023-03-01T16:09:57;0.10;;;0.10;;
23262;SDS011;11800;49.830;9.922;2023-03-01T16:12:23;0.10;;;0.10;;
23262;SDS011;11800;49.830;9.922;2023-03-01T16:14:49;0.10;;;0.10;;
23262;SDS011;11800;49.830;9.922;2023-03-01T16:17:17;0.10;;;0.10;;
23262;SDS011;11800;49.830;9.922;2023-03-01T16:19:43;0.10;;;0.10;;
23262;SDS011;11800;49.830;9.922;2023-03-01T16:22:09;0.10;;;0.10;;
23262;SDS011;11800;49.830;9.922;2023-03-01T16:24:36;0.10;;;0.10;;
23262;SDS011;11800;49.830;9.922;2023-03-01T16:27:02;0.03;;;0.03;;
23262;SDS011;11800;49.830;9.922;2023-03-01T16:29:28;0.10;;;0.10;;
23262;SDS011;11800;49.830;9.922;2023-03-01T16:31:54;0.20;;;0.20;;
23262;SDS011;11800;49.830;9.922;2023-03-01T16:34:21;0.10;;;0.10;;
23262;SDS011;11800;49.830;9.922;2023-03-01T16:36:48;0.10;;;0.10;;
23262;SDS011;11800;49.830;9.922;2023-03-01T16:39:14;0.10;;;0.10;;
23262;SDS011;11800;49.830;9.922;2023-03-01T16:41:41;0.10;;;0.10;;
23262;SDS011;11800;49.830;9.922;2023-03-01T16:44:07;0.10;;;0.10;;
23262;SDS011;11800;49.830;9.922;2023-03-01T16:46:33;0.10;;;0.10;;
23262;SDS011;11800;49.830;9.922;2023-03-01T16:48:59;0.10;;;0.10;;
23262;SDS011;11800;49.830;9.922;2023-03-01T16:51:25;0.10;;;0.10;;
23262;SDS011;11800;49.830;9.922;2023-03-01T16:53:51;0.10;;;0.10;;
23262;SDS011;11800;49.830;9.922;2023-03-01T16:56:17;0.20;;;0.20;;
23262;SDS011;11800;49.830;9.922;2023-03-01T16:58:44;0.17;;;0.17;;
23262;SDS011;11800;49.830;9.922;2023-03-01T17:01:11;0.20;;;0.20;;
23262;SDS011;11800;49.830;9.922;2023-03-01T17:03:38;0.10;;;0.10;;
23262;SDS011;11800;49.830;9.922;2023-03-01T17:06:06;0.20;;;0.20;;
23262;SDS011;11800;49.830;9.922;2023-03-01T17:08:32;0.10;;;0.10;;
23262;SDS011;11800;49.830;9.922;2023-03-01T17:11:05;0.15;;;0.15;;